^^
Your Local Weather - Clay, NY Station Historical Data
Daily Summary for June 1, 2017 Units:  English    Metric   Both
« Previous Day
Next Day »
Daily Weekly Monthly Yearly Custom
  High: Low: Average:
Temperature: 66.1 °F 50.4 °F 58.5 °F
Dew Point: 54.0 °F 39.1 °F 46.3 °F
Humidity: 84% 44% 65%
Wind Speed: 5.0mph 0.0mph 1.4mph
Wind Gust: 17.0mph - -
Wind- - WNW
Pressure: 29.95 in 29.84 in -
Precipitation: 0.00 in    
Historical Graphs
 
 
Tabular Data for June 1, 2017
Time Temperature Dew Point Pressure Wind Wind Speed Wind Gust Humidity Rainfall Rate (Hourly) solar
00:04 60.2 °F 49.6 °F 29.84 in Calm     68% 0.00 in 0 W/m2
00:10 60.0 °F 49.8 °F 29.84 in WSW 1.0 mph 1.0 mph 69% 0.00 in 0 W/m2
00:16 59.9 °F 49.7 °F 29.84 in Calm   1.0 mph 69% 0.00 in 0 W/m2
00:24 59.5 °F 49.7 °F 29.84 in Calm   1.0 mph 70% 0.00 in 0 W/m2
00:30 59.3 °F 49.5 °F 29.84 in Calm     70% 0.00 in 0 W/m2
00:36 59.0 °F 49.6 °F 29.85 in Calm     71% 0.00 in 0 W/m2
00:42 58.5 °F 49.5 °F 29.85 in Calm   2.0 mph 72% 0.00 in 0 W/m2
00:48 58.3 °F 49.3 °F 29.85 in Calm   2.0 mph 72% 0.00 in 0 W/m2
00:54 58.2 °F 49.2 °F 29.85 in Calm     72% 0.00 in 0 W/m2
01:00 58.2 °F 49.2 °F 29.85 in Calm     72% 0.00 in 0 W/m2
01:06 58.2 °F 49.2 °F 29.85 in Calm     72% 0.00 in 0 W/m2
01:12 58.2 °F 49.2 °F 29.85 in Calm     72% 0.00 in 0 W/m2
01:18 58.0 °F 49.0 °F 29.85 in WSW 1.0 mph 1.0 mph 72% 0.00 in 0 W/m2
01:24 58.2 °F 49.2 °F 29.85 in SW 1.0 mph 1.0 mph 72% 0.00 in 0 W/m2
01:30 58.0 °F 49.4 °F 29.85 in WSW 1.0 mph 1.0 mph 73% 0.00 in 0 W/m2
01:36 57.9 °F 49.3 °F 29.85 in WSW 1.0 mph 1.0 mph 73% 0.00 in 0 W/m2
01:42 57.7 °F 49.1 °F 29.85 in WSW 1.0 mph 1.0 mph 73% 0.00 in 0 W/m2
01:44 57.7 °F 49.1 °F 29.85 in WSW 1.0 mph 1.0 mph 73% 0.00 in 0 W/m2
01:50 57.7 °F 49.1 °F 29.85 in WSW 1.0 mph 2.0 mph 73% 0.00 in 0 W/m2
01:56 57.9 °F 49.3 °F 29.85 in West 2.0 mph 2.0 mph 73% 0.00 in 0 W/m2
02:02 57.9 °F 49.3 °F 29.85 in WSW 1.0 mph 2.0 mph 73% 0.00 in 0 W/m2
02:08 57.8 °F 49.2 °F 29.85 in WSW 1.0 mph 2.0 mph 73% 0.00 in 0 W/m2
02:14 57.7 °F 49.1 °F 29.86 in WSW 1.0 mph 2.0 mph 73% 0.00 in 0 W/m2
02:20 57.5 °F 48.9 °F 29.85 in Calm     73% 0.00 in 0 W/m2
02:26 57.2 °F 49.0 °F 29.86 in Calm     74% 0.00 in 0 W/m2
02:32 56.6 °F 48.4 °F 29.85 in Calm     74% 0.00 in 0 W/m2
02:38 56.2 °F 48.4 °F 29.85 in Calm   1.0 mph 75% 0.00 in 0 W/m2
02:44 55.9 °F 48.4 °F 29.85 in Calm     76% 0.00 in 0 W/m2
02:50 55.5 °F 48.8 °F 29.86 in Calm     78% 0.00 in 0 W/m2
02:56 55.1 °F 48.4 °F 29.85 in Calm     78% 0.00 in 0 W/m2
03:02 54.7 °F 48.3 °F 29.85 in Calm     79% 0.00 in 0 W/m2
03:08 54.4 °F 48.0 °F 29.86 in Calm     79% 0.00 in 0 W/m2
03:14 54.1 °F 48.1 °F 29.86 in Calm     80% 0.00 in 0 W/m2
03:20 53.9 °F 48.2 °F 29.86 in Calm     81% 0.00 in 0 W/m2
03:26 53.8 °F 48.4 °F 29.87 in Calm     82% 0.00 in 0 W/m2
03:32 53.8 °F 48.8 °F 29.87 in Calm     83% 0.00 in 0 W/m2
03:38 53.8 °F 48.8 °F 29.87 in Calm     83% 0.00 in 0 W/m2
03:44 53.7 °F 48.7 °F 29.87 in Calm     83% 0.00 in 0 W/m2
03:50 53.7 °F 48.7 °F 29.87 in Calm     83% 0.00 in 0 W/m2
03:56 53.7 °F 49.0 °F 29.87 in Calm     84% 0.00 in 0 W/m2
04:02 53.8 °F 49.1 °F 29.87 in Calm   1.0 mph 84% 0.00 in 0 W/m2
04:08 53.9 °F 49.2 °F 29.87 in Calm   1.0 mph 84% 0.00 in 0 W/m2
04:14 53.9 °F 49.2 °F 29.87 in Calm     84% 0.00 in 0 W/m2
04:20 54.0 °F 49.3 °F 29.87 in Calm     84% 0.00 in 0 W/m2
04:26 54.1 °F 49.4 °F 29.87 in Calm     84% 0.00 in 0 W/m2
04:32 54.3 °F 49.6 °F 29.87 in Calm     84% 0.00 in 0 W/m2
04:38 54.4 °F 49.7 °F 29.87 in Calm     84% 0.00 in 0 W/m2
04:44 54.5 °F 49.4 °F 29.87 in Calm     83% 0.00 in 0 W/m2
04:50 54.7 °F 49.6 °F 29.88 in Calm     83% 0.00 in 0 W/m2
04:56 54.7 °F 49.6 °F 29.88 in Calm   1.0 mph 83% 0.00 in 0 W/m2
05:02 54.8 °F 49.7 °F 29.88 in Calm     83% 0.00 in 0 W/m2
05:08 55.0 °F 49.9 °F 29.89 in Calm   1.0 mph 83% 0.00 in 0 W/m2
05:14 55.1 °F 50.0 °F 29.88 in Calm     83% 0.00 in 0 W/m2
05:20 55.1 °F 50.0 °F 29.89 in Calm     83% 0.00 in 0 W/m2
05:26 55.1 °F 50.0 °F 29.89 in Calm     83% 0.00 in 0 W/m2
05:32 55.0 °F 49.6 °F 29.89 in Calm   1.0 mph 82% 0.00 in 0 W/m2
05:38 55.0 °F 49.9 °F 29.89 in Calm   1.0 mph 83% 0.00 in 5 W/m2
05:44 55.0 °F 49.9 °F 29.89 in Calm     83% 0.00 in 7 W/m2
05:50 55.0 °F 49.9 °F 29.89 in Calm     83% 0.00 in 7 W/m2
05:56 55.0 °F 49.6 °F 29.89 in Calm     82% 0.00 in 5 W/m2
06:02 55.1 °F 49.7 °F 29.89 in Calm   1.0 mph 82% 0.00 in 7 W/m2
06:08 55.1 °F 50.0 °F 29.89 in Calm   1.0 mph 83% 0.00 in 12 W/m2
06:14 55.2 °F 50.1 °F 29.90 in Calm     83% 0.00 in 14 W/m2
06:20 55.2 °F 50.1 °F 29.90 in Calm     83% 0.00 in 18 W/m2
06:32 55.2 °F 50.1 °F 29.90 in Calm     83% 0.00 in 26 W/m2
06:38 55.2 °F 50.1 °F 29.90 in Calm   1.0 mph 83% 0.00 in 44 W/m2
06:46 55.3 °F 50.2 °F 29.90 in WSW 1.0 mph 2.0 mph 83% 0.00 in 42 W/m2
06:52 55.4 °F 50.0 °F 29.90 in Calm     82% 0.00 in 65 W/m2
06:58 55.5 °F 50.4 °F 29.90 in Calm     83% 0.00 in 90 W/m2
07:04 55.8 °F 50.4 °F 29.90 in Calm   1.0 mph 82% 0.00 in 83 W/m2
07:10 56.0 °F 50.6 °F 29.90 in Calm   2.0 mph 82% 0.00 in 118 W/m2
07:16 56.5 °F 50.7 °F 29.90 in WSW 1.0 mph 2.0 mph 81% 0.00 in 135 W/m2
07:22 57.0 °F 50.9 °F 29.90 in WSW 1.0 mph 1.0 mph 80% 0.00 in 313 W/m2
07:28 57.5 °F 51.0 °F 29.90 in WSW 1.0 mph 1.0 mph 79% 0.00 in 272 W/m2
07:34 58.0 °F 51.5 °F 29.90 in Calm   1.0 mph 79% 0.00 in 334 W/m2
07:40 58.8 °F 52.0 °F 29.91 in Calm     78% 0.00 in 403 W/m2
07:46 59.2 °F 51.3 °F 29.91 in Calm   1.0 mph 75% 0.00 in 160 W/m2
07:52 58.8 °F 49.8 °F 29.91 in SW 1.0 mph 3.0 mph 72% 0.00 in 155 W/m2
07:58 58.5 °F 49.5 °F 29.91 in West 1.0 mph 3.0 mph 72% 0.00 in 169 W/m2
08:04 58.3 °F 48.9 °F 29.91 in West 1.0 mph 2.0 mph 71% 0.00 in 186 W/m2
08:10 58.3 °F 49.3 °F 29.92 in SW 1.0 mph 1.0 mph 72% 0.00 in 195 W/m2
08:16 58.6 °F 49.6 °F 29.92 in Calm   1.0 mph 72% 0.00 in 204 W/m2
08:22 58.8 °F 48.6 °F 29.92 in SW 1.0 mph 5.0 mph 69% 0.00 in 181 W/m2
08:28 58.6 °F 48.8 °F 29.92 in WNW 1.0 mph 5.0 mph 70% 0.00 in 127 W/m2
08:34 58.9 °F 48.7 °F 29.91 in Calm   1.0 mph 69% 0.00 in 494 W/m2
08:40 59.8 °F 48.4 °F 29.91 in SW 1.0 mph 1.0 mph 66% 0.00 in 540 W/m2
08:46 59.9 °F 47.7 °F 29.91 in WSW 1.0 mph 3.0 mph 64% 0.00 in 571 W/m2
08:52 60.2 °F 48.4 °F 29.91 in NW 1.0 mph 2.0 mph 65% 0.00 in 417 W/m2
08:58 60.7 °F 49.3 °F 29.92 in WSW 1.0 mph 2.0 mph 66% 0.00 in 589 W/m2
09:04 61.4 °F 49.5 °F 29.91 in WSW 1.0 mph 2.0 mph 65% 0.00 in 571 W/m2
09:10 61.9 °F 49.6 °F 29.91 in NW 1.0 mph 1.0 mph 64% 0.00 in 591 W/m2
09:16 62.2 °F 49.9 °F 29.91 in WNW 1.0 mph 2.0 mph 64% 0.00 in 635 W/m2
09:22 62.1 °F 49.4 °F 29.91 in WSW 1.0 mph 3.0 mph 63% 0.00 in 657 W/m2
09:28 62.4 °F 50.1 °F 29.91 in WSW 1.0 mph 4.0 mph 64% 0.00 in 647 W/m2
09:34 62.4 °F 48.8 °F 29.91 in WSW 2.0 mph 10.0 mph 61% 0.00 in 657 W/m2
09:40 62.4 °F 48.3 °F 29.90 in WSW 3.0 mph 3.0 mph 60% 0.00 in 677 W/m2
09:46 62.7 °F 50.3 °F 29.90 in NW 3.0 mph 5.0 mph 64% 0.00 in 636 W/m2
09:52 63.2 °F 49.1 °F 29.90 in WSW 2.0 mph 7.0 mph 60% 0.00 in 663 W/m2
09:58 63.6 °F 49.5 °F 29.90 in SW 3.0 mph 7.0 mph 60% 0.00 in 914 W/m2
10:04 63.8 °F 51.4 °F 29.90 in West 3.0 mph 10.0 mph 64% 0.00 in 970 W/m2
10:10 64.0 °F 49.8 °F 29.90 in SW 2.0 mph 6.0 mph 60% 0.00 in 214 W/m2
10:18 61.9 °F 48.3 °F 29.90 in WSW 3.0 mph 6.0 mph 61% 0.00 in 79 W/m2
10:24 62.1 °F 50.2 °F 29.90 in SW 2.0 mph 3.0 mph 65% 0.00 in 882 W/m2
10:30 64.5 °F 51.6 °F 29.90 in SSW 2.0 mph 4.0 mph 63% 0.00 in 991 W/m2
10:36 65.3 °F 51.1 °F 29.89 in WSW 2.0 mph 5.0 mph 60% 0.00 in 967 W/m2
10:42 65.2 °F 51.8 °F 29.89 in WNW 2.0 mph 2.0 mph 62% 0.00 in 967 W/m2
10:48 64.2 °F 49.1 °F 29.90 in WSW 3.0 mph 8.0 mph 58% 0.00 in 874 W/m2
10:54 65.1 °F 50.4 °F 29.89 in NNW 3.0 mph 4.0 mph 59% 0.00 in 900 W/m2
11:00 65.7 °F 50.5 °F 29.89 in SW 3.0 mph 3.0 mph 58% 0.00 in 1004 W/m2
11:06 65.6 °F 51.3 °F 29.89 in NW 2.0 mph 3.0 mph 60% 0.00 in 1049 W/m2
11:12 65.5 °F 49.9 °F 29.90 in West 2.0 mph 3.0 mph 57% 0.00 in 332 W/m2
11:18 64.4 °F 50.2 °F 29.90 in NNW 3.0 mph 3.0 mph 60% 0.00 in 292 W/m2
11:24 63.9 °F 50.2 °F 29.89 in West 2.0 mph 3.0 mph 61% 0.00 in 118 W/m2
11:30 63.1 °F 50.3 °F 29.90 in NNW 2.0 mph 3.0 mph 63% 0.00 in 100 W/m2
11:36 62.5 °F 51.0 °F 29.90 in NW 1.0 mph 3.0 mph 66% 0.00 in 308 W/m2
11:42 62.5 °F 50.6 °F 29.90 in NW 2.0 mph 2.0 mph 65% 0.00 in 295 W/m2
11:48 64.2 °F 52.2 °F 29.90 in NNW 2.0 mph 2.0 mph 65% 0.00 in 935 W/m2
11:54 66.1 °F 54.0 °F 29.90 in NW 2.0 mph 4.0 mph 65% 0.00 in 998 W/m2
12:00 65.6 °F 52.2 °F 29.90 in West 2.0 mph 2.0 mph 62% 0.00 in 1058 W/m2
12:06 65.5 °F 51.2 °F 29.90 in WSW 2.0 mph 2.0 mph 60% 0.00 in 970 W/m2
12:12 66.0 °F 50.8 °F 29.90 in NW 2.0 mph 3.0 mph 58% 0.00 in 988 W/m2
12:18 65.0 °F 52.1 °F 29.90 in NNW 2.0 mph 8.0 mph 63% 0.00 in 204 W/m2
12:24 66.1 °F 54.0 °F 29.90 in NNW 3.0 mph 4.0 mph 65% 0.00 in 311 W/m2
12:30 64.9 °F 51.1 °F 29.90 in NW 3.0 mph 5.0 mph 61% 0.00 in 174 W/m2
12:36 63.5 °F 51.1 °F 29.90 in NW 3.0 mph 5.0 mph 64% 0.00 in 181 W/m2
12:42 63.3 °F 52.6 °F 29.90 in North 3.0 mph 5.0 mph 68% 0.00 in 1048 W/m2
12:48 64.9 °F 52.4 °F 29.90 in NNW 2.0 mph 5.0 mph 64% 0.00 in 988 W/m2
12:54 64.9 °F 52.0 °F 29.90 in NNW 3.0 mph 5.0 mph 63% 0.00 in 962 W/m2
13:00 64.2 °F 51.8 °F 29.90 in WNW 3.0 mph 3.0 mph 64% 0.00 in 960 W/m2
13:06 64.7 °F 52.7 °F 29.90 in WNW 4.0 mph 7.0 mph 65% 0.00 in 963 W/m2
13:12 64.8 °F 52.8 °F 29.90 in NNW 3.0 mph 4.0 mph 65% 0.00 in 958 W/m2
13:20 64.1 °F 51.2 °F 29.90 in WNW 3.0 mph 8.0 mph 63% 0.00 in 953 W/m2
13:26 63.5 °F 51.9 °F 29.90 in NNW 5.0 mph 9.0 mph 66% 0.00 in 954 W/m2
13:32 63.6 °F 49.0 °F 29.89 in West 4.0 mph 4.0 mph 59% 0.00 in 953 W/m2
13:38 63.6 °F 49.9 °F 29.89 in NNW 2.0 mph 7.0 mph 61% 0.00 in 958 W/m2
13:44 63.7 °F 50.4 °F 29.90 in WNW 4.0 mph 6.0 mph 62% 0.00 in 953 W/m2
13:50 63.2 °F 48.2 °F 29.90 in NNW 5.0 mph 5.0 mph 58% 0.00 in 953 W/m2
13:56 64.0 °F 51.1 °F 29.90 in NW 4.0 mph 6.0 mph 63% 0.00 in 946 W/m2
14:02 63.3 °F 46.9 °F 29.90 in WSW 3.0 mph 3.0 mph 55% 0.00 in 944 W/m2
14:08 63.5 °F 47.0 °F 29.90 in WNW 3.0 mph 7.0 mph 55% 0.00 in 937 W/m2
14:14 63.4 °F 47.9 °F 29.90 in NW 3.0 mph 8.0 mph 57% 0.00 in 932 W/m2
14:20 62.8 °F 45.9 °F 29.90 in NNW 4.0 mph 10.0 mph 54% 0.00 in 925 W/m2
14:26 62.4 °F 47.9 °F 29.90 in NW 5.0 mph 10.0 mph 59% 0.00 in 916 W/m2
14:32 62.6 °F 44.2 °F 29.90 in North 5.0 mph 5.0 mph 51% 0.00 in 912 W/m2
14:38 62.5 °F 44.6 °F 29.90 in NW 4.0 mph 8.0 mph 52% 0.00 in 898 W/m2
14:44 62.6 °F 44.7 °F 29.90 in NW 4.0 mph 7.0 mph 52% 0.00 in 893 W/m2
14:50 62.3 °F 43.9 °F 29.90 in WNW 4.0 mph 4.0 mph 51% 0.00 in 886 W/m2
14:56 62.8 °F 44.4 °F 29.90 in NW 4.0 mph 6.0 mph 51% 0.00 in 875 W/m2
15:02 62.1 °F 41.1 °F 29.90 in NW 5.0 mph 6.0 mph 46% 0.00 in 865 W/m2
15:08 61.8 °F 41.3 °F 29.90 in NW 4.0 mph 7.0 mph 47% 0.00 in 856 W/m2
15:14 61.9 °F 40.9 °F 29.90 in NNW 4.0 mph 6.0 mph 46% 0.00 in 849 W/m2
15:20 62.7 °F 44.8 °F 29.90 in NW 3.0 mph 3.0 mph 52% 0.00 in 837 W/m2
15:26 62.7 °F 40.5 °F 29.91 in NW 3.0 mph 4.0 mph 44% 0.00 in 826 W/m2
15:32 62.5 °F 41.4 °F 29.91 in WNW 4.0 mph 4.0 mph 46% 0.00 in 814 W/m2
15:38 62.4 °F 41.9 °F 29.91 in NW 4.0 mph 4.0 mph 47% 0.00 in 796 W/m2
15:44 62.2 °F 42.3 °F 29.92 in WNW 4.0 mph 5.0 mph 48% 0.00 in 788 W/m2
15:50 61.9 °F 42.0 °F 29.91 in NNW 5.0 mph 8.0 mph 48% 0.00 in 773 W/m2
15:56 62.0 °F 41.0 °F 29.91 in NW 5.0 mph 5.0 mph 46% 0.00 in 759 W/m2
16:02 62.7 °F 43.3 °F 29.91 in NW 3.0 mph 4.0 mph 49% 0.00 in 744 W/m2
16:08 62.1 °F 42.7 °F 29.91 in NW 5.0 mph 17.0 mph 49% 0.00 in 731 W/m2
16:14 62.1 °F 40.5 °F 29.91 in NW 5.0 mph 5.0 mph 45% 0.00 in 714 W/m2
16:20 62.7 °F 41.6 °F 29.91 in NNW 3.0 mph 5.0 mph 46% 0.00 in 698 W/m2
16:26 63.0 °F 44.1 °F 29.92 in NW 3.0 mph 5.0 mph 50% 0.00 in 137 W/m2
16:32 62.6 °F 40.4 °F 29.92 in NNW 3.0 mph 3.0 mph 44% 0.00 in 489 W/m2
16:38 62.0 °F 41.0 °F 29.92 in WNW 5.0 mph 9.0 mph 46% 0.00 in 714 W/m2
16:44 62.0 °F 41.5 °F 29.92 in WNW 4.0 mph 8.0 mph 47% 0.00 in 503 W/m2
16:50 62.0 °F 41.5 °F 29.92 in West 3.0 mph 3.0 mph 47% 0.00 in 343 W/m2
16:56 61.6 °F 40.6 °F 29.92 in NNW 3.0 mph 3.0 mph 46% 0.00 in 223 W/m2
17:04 61.2 °F 39.7 °F 29.92 in NNW 4.0 mph 6.0 mph 45% 0.00 in 144 W/m2
17:10 60.6 °F 40.2 °F 29.92 in NW 4.0 mph 4.0 mph 47% 0.00 in 146 W/m2
17:16 60.2 °F 40.4 °F 29.92 in NNW 4.0 mph 5.0 mph 48% 0.00 in 165 W/m2
17:22 59.7 °F 41.0 °F 29.92 in WNW 4.0 mph 4.0 mph 50% 0.00 in 178 W/m2
17:28 59.5 °F 41.3 °F 29.93 in NW 3.0 mph 4.0 mph 51% 0.00 in 171 W/m2
17:34 59.3 °F 39.6 °F 29.93 in WNW 2.0 mph 8.0 mph 48% 0.00 in 167 W/m2
17:40 58.8 °F 39.1 °F 29.93 in NW 3.0 mph 3.0 mph 48% 0.00 in 162 W/m2
17:46 58.7 °F 41.1 °F 29.92 in NW 2.0 mph 3.0 mph 52% 0.00 in 172 W/m2
17:52 58.7 °F 41.1 °F 29.93 in North 2.0 mph 3.0 mph 52% 0.00 in 167 W/m2
17:58 58.7 °F 41.1 °F 29.93 in NNW 2.0 mph 3.0 mph 52% 0.00 in 160 W/m2
18:04 58.6 °F 41.0 °F 29.93 in NW 2.0 mph 2.0 mph 52% 0.00 in 155 W/m2
18:10 58.4 °F 40.3 °F 29.93 in NNW 3.0 mph 3.0 mph 51% 0.00 in 142 W/m2
18:16 58.2 °F 40.6 °F 29.93 in NW 3.0 mph 4.0 mph 52% 0.00 in 141 W/m2
18:22 58.1 °F 40.1 °F 29.93 in NNW 3.0 mph 5.0 mph 51% 0.00 in 123 W/m2
18:28 58.0 °F 41.0 °F 29.93 in NW 2.0 mph 5.0 mph 53% 0.00 in 118 W/m2
18:34 57.9 °F 40.4 °F 29.93 in West 2.0 mph 3.0 mph 52% 0.00 in 114 W/m2
18:40 57.9 °F 39.9 °F 29.93 in NNW 2.0 mph 2.0 mph 51% 0.00 in 100 W/m2
18:48 57.7 °F 40.7 °F 29.93 in NW 1.0 mph 3.0 mph 53% 0.00 in 98 W/m2
18:54 57.7 °F 40.7 °F 29.93 in NNW 2.0 mph 2.0 mph 53% 0.00 in 86 W/m2
19:00 57.5 °F 40.0 °F 29.93 in NW 3.0 mph 3.0 mph 52% 0.00 in 77 W/m2
19:06 57.3 °F 39.8 °F 29.93 in NNW 3.0 mph 3.0 mph 52% 0.00 in 72 W/m2
19:12 57.1 °F 39.6 °F 29.92 in West 2.0 mph 2.0 mph 52% 0.00 in 47 W/m2
19:18 56.9 °F 40.9 °F 29.92 in North 2.0 mph 2.0 mph 55% 0.00 in 35 W/m2
19:24 56.8 °F 39.8 °F 29.92 in North 1.0 mph 2.0 mph 53% 0.00 in 33 W/m2
19:30 56.7 °F 40.2 °F 29.92 in WNW 1.0 mph 1.0 mph 54% 0.00 in 40 W/m2
19:36 56.6 °F 39.7 °F 29.92 in WNW 1.0 mph 1.0 mph 53% 0.00 in 37 W/m2
19:42 56.6 °F 40.1 °F 29.93 in NW 1.0 mph 4.0 mph 54% 0.00 in 37 W/m2
19:48 56.4 °F 39.5 °F 29.92 in West 1.0 mph 4.0 mph 53% 0.00 in 25 W/m2
19:56 56.4 °F 40.0 °F 29.93 in West 1.0 mph 1.0 mph 54% 0.00 in 14 W/m2
20:02 56.2 °F 39.8 °F 29.93 in North 1.0 mph 2.0 mph 54% 0.00 in 16 W/m2
20:08 56.1 °F 40.1 °F 29.93 in North 1.0 mph 2.0 mph 55% 0.00 in 12 W/m2
20:14 56.1 °F 39.7 °F 29.93 in NNW 1.0 mph 1.0 mph 54% 0.00 in 16 W/m2
20:20 56.1 °F 40.1 °F 29.93 in NNW 1.0 mph 1.0 mph 55% 0.00 in 21 W/m2
20:26 56.0 °F 40.1 °F 29.93 in Calm   1.0 mph 55% 0.00 in 11 W/m2
20:32 55.9 °F 40.0 °F 29.93 in Calm     55% 0.00 in 5 W/m2
20:38 55.8 °F 40.3 °F 29.93 in Calm     56% 0.00 in 0 W/m2
20:44 55.7 °F 40.2 °F 29.93 in Calm     56% 0.00 in 0 W/m2
20:50 55.5 °F 40.0 °F 29.93 in Calm     56% 0.00 in 0 W/m2
20:56 55.3 °F 39.9 °F 29.93 in Calm   2.0 mph 56% 0.00 in 0 W/m2
21:02 55.1 °F 40.1 °F 29.94 in Calm     57% 0.00 in 0 W/m2
21:08 54.8 °F 39.8 °F 29.94 in Calm     57% 0.00 in 0 W/m2
21:16 54.3 °F 39.8 °F 29.94 in Calm     58% 0.00 in 0 W/m2
21:22 53.9 °F 40.3 °F 29.94 in Calm     60% 0.00 in 0 W/m2
21:28 53.2 °F 42.1 °F 29.94 in Calm     66% 0.00 in 0 W/m2
21:34 52.5 °F 42.2 °F 29.94 in Calm     68% 0.00 in 0 W/m2
21:40 52.1 °F 41.9 °F 29.94 in Calm     68% 0.00 in 0 W/m2
21:46 51.8 °F 41.6 °F 29.94 in Calm     68% 0.00 in 0 W/m2
21:52 51.7 °F 41.5 °F 29.94 in Calm     68% 0.00 in 0 W/m2
21:58 51.9 °F 41.7 °F 29.95 in Calm     68% 0.00 in 0 W/m2
22:04 52.1 °F 41.1 °F 29.94 in Calm     66% 0.00 in 0 W/m2
22:10 52.4 °F 41.8 °F 29.94 in Calm     67% 0.00 in 0 W/m2
22:16 52.6 °F 41.2 °F 29.94 in Calm     65% 0.00 in 0 W/m2
22:22 52.6 °F 41.6 °F 29.94 in Calm     66% 0.00 in 0 W/m2
22:28 52.4 °F 41.0 °F 29.94 in Calm     65% 0.00 in 0 W/m2
22:34 52.2 °F 41.2 °F 29.94 in Calm     66% 0.00 in 0 W/m2
22:40 51.9 °F 41.3 °F 29.95 in Calm     67% 0.00 in 0 W/m2
22:46 51.6 °F 41.4 °F 29.95 in Calm     68% 0.00 in 0 W/m2
22:52 51.5 °F 40.5 °F 29.95 in Calm   1.0 mph 66% 0.00 in 0 W/m2
22:58 51.8 °F 40.0 °F 29.95 in NW 1.0 mph 1.0 mph 64% 0.00 in 0 W/m2
23:06 52.7 °F 40.0 °F 29.95 in NNW 2.0 mph 3.0 mph 62% 0.00 in 0 W/m2
23:12 52.6 °F 40.4 °F 29.95 in NW 1.0 mph 2.0 mph 63% 0.00 in 0 W/m2
23:18 52.4 °F 40.2 °F 29.94 in NW 1.0 mph 2.0 mph 63% 0.00 in 0 W/m2
23:24 52.2 °F 40.4 °F 29.94 in Calm   1.0 mph 64% 0.00 in 0 W/m2
23:30 51.7 °F 40.3 °F 29.94 in Calm     65% 0.00 in 0 W/m2
23:36 51.3 °F 40.7 °F 29.94 in Calm     67% 0.00 in 0 W/m2
23:42 50.9 °F 40.7 °F 29.94 in Calm     68% 0.00 in 0 W/m2
23:48 50.7 °F 40.5 °F 29.94 in Calm     68% 0.00 in 0 W/m2
23:54 50.4 °F 41.3 °F 29.94 in Calm     71% 0.00 in 0 W/m2
Country Meadow, Clay, NY, USA
Compliments of Weather Underground - 2 mb